Terminal Aerodrome Forecast
Issued by NWS

Home | Current Version | Previous Version | Text Only | Print | Product List | Glossary On
Versions: 1 2 3 4 5 6 7 8 9 10 11 12 13 14 15 16 17
000
FTUS43 KGRR 230400 AAA
TAFMKG
TAF AMD
KMKG 230400Z 2304/2324 10010G16KT 5SM -RA BR OVC025
      TEMPO 2304/2306 4SM -RA BR OVC009
     FM230600 11012KT 2SM -RA BR OVC007
     FM231500 16011KT 2SM BR OVC015
     FM231800 18010KT 5SM HZ VCSH OVC025=

USA.gov is the U.S. government's official web portal to all federal, state and local government web resources and services.